Time;durP1;ratioP1;P1;durP2;ratioP2;P2;SDS_P1;SDS_P2;PMS_P1;PMS_P2;Temp;Humidity;BMP_temperature;BMP_pressure;BME280_temperature;BME280_humidity;BME280_pressure;Samples;Min_cycle;Max_cycle;Signal;HPM_P1;HPM_P2
2023/05/31 00:00:17;;;;;;;8.10;4.90;;;10.30;99.90;;;;;;5026185;28;20912;-79
2023/05/31 00:02:42;;;;;;;9.13;5.60;;;10.30;99.90;;;;;;5042726;28;20757;-81
2023/05/31 00:05:08;;;;;;;7.43;4.47;;;10.30;99.90;;;;;;5044451;28;20457;-83
2023/05/31 00:07:34;;;;;;;8.50;4.80;;;10.40;99.90;;;;;;5046059;28;20436;-80
2023/05/31 00:10:00;;;;;;;10.23;4.70;;;10.40;99.90;;;;;;5044459;28;20421;-78
2023/05/31 00:12:25;;;;;;;8.90;4.87;;;10.20;99.90;;;;;;5040761;28;22193;-81
2023/05/31 00:14:51;;;;;;;7.87;4.87;;;10.40;99.90;;;;;;5042785;28;20807;-80
2023/05/31 00:17:17;;;;;;;11.25;5.38;;;10.30;99.90;;;;;;5038443;28;20427;-80
2023/05/31 00:19:43;;;;;;;9.27;4.50;;;10.30;99.90;;;;;;5042155;28;20783;-77
2023/05/31 00:22:09;;;;;;;9.50;4.93;;;10.20;99.90;;;;;;5041237;28;20426;-80
2023/05/31 00:24:35;;;;;;;7.13;4.60;;;10.40;99.90;;;;;;5043826;28;20496;-79
2023/05/31 00:27:01;;;;;;;10.50;5.07;;;10.60;99.90;;;;;;5042979;28;20437;-80
2023/05/31 00:29:27;;;;;;;7.50;5.47;;;10.50;99.90;;;;;;5042429;28;20428;-75
2023/05/31 00:31:52;;;;;;;7.10;4.53;;;10.30;99.90;;;;;;5044742;28;20429;-82
2023/05/31 00:34:18;;;;;;;7.07;4.45;;;10.30;99.90;;;;;;5046683;28;20412;-81
2023/05/31 00:36:44;;;;;;;13.80;4.80;;;10.50;99.90;;;;;;5043476;28;20425;-77
2023/05/31 00:39:10;;;;;;;9.93;4.00;;;10.30;99.90;;;;;;5043152;28;20818;-81
2023/05/31 00:41:35;;;;;;;8.32;4.82;;;10.50;99.90;;;;;;5043012;28;20421;-80
2023/05/31 00:44:01;;;;;;;7.38;4.53;;;10.50;99.90;;;;;;5033299;28;20906;-80
2023/05/31 00:46:33;;;;;;;7.28;5.03;;;10.40;99.90;;;;;;5040085;28;20432;-81
2023/05/31 00:48:59;;;;;;;7.50;4.60;;;10.40;99.90;;;;;;5039280;28;20433;-78
2023/05/31 00:51:27;;;;;;;9.23;4.88;;;10.30;99.90;;;;;;5040901;28;20427;-82
2023/05/31 00:53:53;;;;;;;8.90;5.30;;;10.40;99.90;;;;;;5041939;28;20502;-82
2023/05/31 00:56:19;;;;;;;7.25;4.85;;;10.30;99.90;;;;;;5046209;28;20417;-80
2023/05/31 00:58:45;;;;;;;7.63;4.72;;;10.60;99.90;;;;;;5041354;28;20429;-82
2023/05/31 01:01:13;;;;;;;9.68;4.80;;;10.40;99.90;;;;;;5048144;28;20420;-79
2023/05/31 01:03:39;;;;;;;8.93;5.32;;;10.40;99.90;;;;;;5049621;28;20428;-80
2023/05/31 01:06:05;;;;;;;8.95;5.00;;;10.50;99.90;;;;;;5050137;28;20504;-80
2023/05/31 01:08:31;;;;;;;9.70;5.40;;;10.50;99.90;;;;;;5049513;28;20516;-83
2023/05/31 01:11:03;;;;;;;10.50;5.30;;;10.40;99.90;;;;;;5042883;28;20437;-82
2023/05/31 01:14:00;;;;;;;8.75;4.97;;;10.40;99.90;;;;;;5046833;28;20457;-80
2023/05/31 01:16:38;;;;;;;9.25;4.90;;;10.30;99.90;;;;;;5025287;28;20871;-79
2023/05/31 01:19:07;;;;;;;8.50;5.07;;;10.10;99.90;;;;;;5029964;28;20423;-81
2023/05/31 01:22:03;;;;;;;8.18;4.70;;;10.30;99.90;;;;;;5039322;28;20419;-82
2023/05/31 01:24:59;;;;;;;8.97;5.17;;;10.20;99.90;;;;;;5041159;28;20517;-77
2023/05/31 01:27:26;;;;;;;8.50;5.00;;;10.30;99.90;;;;;;5046121;28;20507;-80
2023/05/31 01:29:55;;;;;;;10.18;5.55;;;10.00;99.90;;;;;;5029676;28;20437;-81
2023/05/31 01:32:23;;;;;;;8.48;4.93;;;10.00;99.90;;;;;;5047804;28;20433;-81
2023/05/31 01:34:50;;;;;;;8.10;4.88;;;10.00;99.90;;;;;;5048555;28;20435;-80
2023/05/31 01:37:15;;;;;;;8.65;6.00;;;9.90;99.90;;;;;;5044477;28;20441;-82
2023/05/31 01:39:42;;;;;;;8.55;5.40;;;9.90;99.90;;;;;;5046574;28;20417;-79
2023/05/31 01:42:10;;;;;;;8.00;5.35;;;9.90;99.90;;;;;;5047548;28;20486;-79
2023/05/31 01:44:37;;;;;;;10.27;6.57;;;9.70;99.90;;;;;;5044856;28;20457;-78
2023/05/31 01:47:03;;;;;;;8.55;5.93;;;9.80;99.90;;;;;;5048108;28;20451;-77
2023/05/31 01:49:29;;;;;;;11.38;5.32;;;9.90;99.90;;;;;;5045762;28;20817;-80
2023/05/31 01:51:56;;;;;;;9.80;5.47;;;9.80;99.90;;;;;;5044689;28;20524;-80
2023/05/31 01:54:22;;;;;;;9.77;5.78;;;9.60;99.90;;;;;;5030510;28;20492;-80
2023/05/31 01:56:48;;;;;;;9.87;5.67;;;9.50;99.90;;;;;;5044358;28;20897;-78
2023/05/31 01:59:15;;;;;;;7.57;4.93;;;9.50;99.90;;;;;;5041936;28;20505;-79
2023/05/31 02:01:41;;;;;;;10.35;5.78;;;9.60;99.90;;;;;;5042071;28;20935;-81
2023/05/31 02:04:07;;;;;;;11.20;5.68;;;10.40;99.90;;;;;;5046690;28;20457;-80
2023/05/31 02:06:36;;;;;;;11.30;5.80;;;10.00;99.90;;;;;;5044081;28;20429;-79
2023/05/31 02:09:04;;;;;;;11.00;5.90;;;9.60;99.90;;;;;;5040695;28;20405;-80
2023/05/31 02:11:30;;;;;;;8.57;5.47;;;9.70;99.90;;;;;;5045098;28;20451;-80
2023/05/31 02:13:55;;;;;;;8.50;5.60;;;9.40;99.90;;;;;;5047639;28;20425;-80
2023/05/31 02:16:21;;;;;;;10.03;6.60;;;9.60;99.90;;;;;;5040379;28;20824;-76
2023/05/31 02:18:47;;;;;;;13.73;6.83;;;9.40;99.90;;;;;;5045333;28;20508;-80
2023/05/31 02:21:12;;;;;;;8.60;5.40;;;9.30;99.90;;;;;;5043228;28;20449;-81
2023/05/31 02:23:38;;;;;;;10.73;6.13;;;10.10;99.90;;;;;;5036998;28;20421;-74
2023/05/31 02:26:04;;;;;;;10.15;6.57;;;9.30;99.90;;;;;;5041688;28;20475;-80
2023/05/31 02:28:29;;;;;;;10.02;6.50;;;9.20;99.90;;;;;;5047157;28;20432;-78
2023/05/31 02:31:00;;;;;;;10.68;5.78;;;9.40;99.90;;;;;;5044438;28;20483;-74
2023/05/31 02:33:26;;;;;;;10.60;5.95;;;9.20;99.90;;;;;;5045029;28;20798;-79
2023/05/31 02:35:52;;;;;;;11.90;6.35;;;9.40;99.90;;;;;;5044239;28;20512;-79
2023/05/31 02:38:19;;;;;;;10.55;6.50;;;9.10;99.90;;;;;;5043112;28;20848;-78
2023/05/31 02:40:46;;;;;;;10.65;6.35;;;9.30;99.90;;;;;;5037477;28;20482;-80
2023/05/31 02:43:11;;;;;;;11.85;6.13;;;9.20;99.90;;;;;;5036840;28;20767;-75
2023/05/31 02:45:37;;;;;;;13.55;7.28;;;9.40;99.90;;;;;;5038434;28;21125;-79
2023/05/31 02:48:05;;;;;;;12.00;7.40;;;9.00;99.90;;;;;;5043708;28;20435;-80
2023/05/31 02:50:31;;;;;;;11.98;7.15;;;9.10;99.90;;;;;;5043743;28;20425;-80
2023/05/31 02:52:56;;;;;;;9.15;6.43;;;9.10;99.90;;;;;;5044783;28;20792;-75
2023/05/31 02:55:22;;;;;;;12.93;7.40;;;9.20;99.90;;;;;;5040923;28;20429;-78
2023/05/31 02:57:48;;;;;;;10.23;6.97;;;9.10;99.90;;;;;;5046466;28;20432;-79
2023/05/31 03:00:14;;;;;;;13.87;7.70;;;9.10;99.90;;;;;;5043280;28;20444;-77
2023/05/31 03:02:40;;;;;;;12.32;7.63;;;9.00;99.90;;;;;;5046201;28;20476;-79
2023/05/31 03:05:08;;;;;;;10.68;7.00;;;9.00;99.90;;;;;;5042883;28;20423;-78
2023/05/31 03:07:37;;;;;;;11.57;7.77;;;9.00;99.90;;;;;;5045406;28;20426;-79
2023/05/31 03:10:06;;;;;;;14.50;8.35;;;9.30;99.90;;;;;;5042399;28;20991;-80
2023/05/31 03:12:33;;;;;;;16.33;8.15;;;9.20;99.90;;;;;;5046610;28;20442;-78
2023/05/31 03:14:58;;;;;;;13.30;8.10;;;9.10;99.90;;;;;;5044612;28;20456;-80
2023/05/31 03:17:24;;;;;;;12.90;7.73;;;9.10;99.90;;;;;;5042697;28;20449;-80
2023/05/31 03:19:50;;;;;;;13.20;8.33;;;9.20;99.90;;;;;;5045191;28;20975;-81
2023/05/31 03:22:16;;;;;;;12.83;8.03;;;9.10;99.90;;;;;;5045576;28;20417;-76
2023/05/31 03:24:41;;;;;;;12.33;8.17;;;9.10;99.90;;;;;;5043015;28;20961;-79
2023/05/31 03:27:07;;;;;;;16.93;8.83;;;9.00;99.90;;;;;;5042310;28;20821;-81
2023/05/31 03:29:36;;;;;;;12.30;9.27;;;9.10;99.90;;;;;;5045911;28;20802;-80
2023/05/31 03:32:02;;;;;;;13.13;8.63;;;9.40;99.90;;;;;;5044345;28;20465;-80
2023/05/31 03:34:28;;;;;;;13.73;8.00;;;9.20;99.90;;;;;;5043798;28;20476;-79
2023/05/31 03:36:54;;;;;;;11.68;8.85;;;9.00;99.90;;;;;;5043860;28;20429;-80
2023/05/31 03:39:20;;;;;;;15.33;9.40;;;9.10;99.90;;;;;;5046064;28;20474;-79
2023/05/31 03:41:46;;;;;;;12.03;8.23;;;9.20;99.90;;;;;;5044131;28;20480;-80
2023/05/31 03:44:11;;;;;;;10.87;8.33;;;9.20;99.90;;;;;;5047202;28;20414;-78
2023/05/31 03:46:37;;;;;;;12.50;8.73;;;9.10;99.90;;;;;;5041587;28;20425;-80
2023/05/31 03:49:05;;;;;;;15.27;8.80;;;9.40;99.90;;;;;;5044894;28;20497;-81
2023/05/31 03:51:31;;;;;;;14.73;8.77;;;9.20;99.90;;;;;;5045358;28;20476;-79
2023/05/31 03:53:57;;;;;;;17.80;8.27;;;9.30;99.90;;;;;;5047618;28;20973;-80
2023/05/31 03:56:22;;;;;;;12.53;8.27;;;9.20;99.90;;;;;;5044659;28;20558;-80
2023/05/31 03:58:48;;;;;;;18.17;7.90;;;9.60;99.90;;;;;;5047636;28;20436;-75
2023/05/31 04:01:14;;;;;;;15.50;8.57;;;9.30;99.90;;;;;;5045636;28;20523;-80
2023/05/31 04:03:39;;;;;;;13.67;8.37;;;9.20;99.90;;;;;;5041134;28;20429;-80
2023/05/31 04:06:05;;;;;;;14.03;9.10;;;9.30;99.90;;;;;;5035862;28;20917;-76
2023/05/31 04:08:31;;;;;;;16.85;8.70;;;9.30;99.90;;;;;;5044032;28;20448;-78
2023/05/31 04:10:57;;;;;;;15.17;8.33;;;9.20;99.90;;;;;;5042760;28;20423;-76
2023/05/31 04:13:22;;;;;;;14.53;8.97;;;9.40;99.90;;;;;;5046145;28;20497;-79
2023/05/31 04:15:48;;;;;;;12.37;8.13;;;9.70;99.90;;;;;;5038545;28;20438;-80
2023/05/31 04:18:14;;;;;;;13.52;8.23;;;9.70;99.90;;;;;;5036236;28;20434;-77
2023/05/31 04:20:40;;;;;;;13.10;8.68;;;9.70;99.90;;;;;;5038513;28;20508;-78
2023/05/31 04:23:05;;;;;;;13.63;8.52;;;10.00;99.90;;;;;;5044653;28;20453;-75
2023/05/31 04:25:31;;;;;;;16.58;8.85;;;9.80;99.90;;;;;;5040677;28;20432;-79
2023/05/31 04:27:57;;;;;;;15.70;8.65;;;10.10;99.90;;;;;;5042801;28;20499;-79
2023/05/31 04:30:23;;;;;;;15.52;8.85;;;10.20;99.90;;;;;;5044442;28;20427;-80
2023/05/31 04:32:52;;;;;;;18.45;7.70;;;10.20;99.90;;;;;;5043185;28;20441;-78
2023/05/31 04:35:18;;;;;;;14.67;8.27;;;10.20;99.90;;;;;;5041437;28;21053;-77
2023/05/31 04:37:44;;;;;;;17.20;9.63;;;10.10;99.90;;;;;;5045051;28;20440;-80
2023/05/31 04:40:11;;;;;;;15.32;8.60;;;10.70;99.90;;;;;;5042094;28;20433;-79
2023/05/31 04:42:37;;;;;;;13.02;7.40;;;10.90;99.90;;;;;;5037789;28;21041;-76
2023/05/31 04:45:04;;;;;;;19.15;10.10;;;10.80;99.90;;;;;;5041734;28;20498;-77
2023/05/31 04:47:33;;;;;;;14.70;8.93;;;10.70;99.90;;;;;;5037084;28;20827;-79
2023/05/31 04:49:59;;;;;;;13.55;8.35;;;10.80;99.90;;;;;;5044315;28;20421;-77
2023/05/31 04:52:29;;;;;;;14.85;7.60;;;10.80;99.90;;;;;;5039643;28;20465;-79
2023/05/31 04:54:59;;;;;;;15.30;9.32;;;10.80;99.90;;;;;;5040152;28;20429;-78
2023/05/31 04:57:28;;;;;;;13.02;8.25;;;11.00;99.90;;;;;;5040821;28;20475;-79
2023/05/31 04:59:56;;;;;;;15.73;8.90;;;11.00;99.90;;;;;;5043142;28;20421;-78
2023/05/31 05:02:22;;;;;;;19.90;8.98;;;10.80;99.90;;;;;;5043459;28;20464;-78
2023/05/31 05:04:48;;;;;;;17.27;8.82;;;11.10;99.90;;;;;;5040232;28;20468;-77
2023/05/31 05:07:16;;;;;;;13.93;7.32;;;11.30;99.90;;;;;;5043597;28;20424;-80
2023/05/31 05:09:42;;;;;;;15.95;7.85;;;11.10;99.90;;;;;;5041340;28;20471;-76
2023/05/31 05:12:09;;;;;;;17.08;8.50;;;11.20;99.90;;;;;;5039858;28;20488;-77
2023/05/31 05:14:35;;;;;;;11.25;7.80;;;11.60;99.90;;;;;;5040782;28;20436;-79
2023/05/31 05:17:00;;;;;;;14.75;8.23;;;11.50;99.90;;;;;;5039693;28;20429;-79
2023/05/31 05:19:26;;;;;;;15.98;7.70;;;11.40;99.90;;;;;;5042363;28;20440;-74
2023/05/31 05:21:52;;;;;;;17.98;9.43;;;11.70;99.90;;;;;;5043588;28;20467;-77
2023/05/31 05:24:17;;;;;;;19.10;9.35;;;11.80;99.90;;;;;;5042913;28;20429;-76
2023/05/31 05:26:44;;;;;;;14.77;8.40;;;11.50;99.90;;;;;;5043017;28;20436;-78
2023/05/31 05:29:10;;;;;;;16.10;8.40;;;11.50;99.90;;;;;;5041736;28;20855;-80
2023/05/31 05:31:36;;;;;;;18.07;8.10;;;12.00;99.90;;;;;;5043194;28;20536;-79
2023/05/31 05:34:02;;;;;;;19.47;8.77;;;11.80;99.90;;;;;;5043864;28;20772;-78
2023/05/31 05:36:27;;;;;;;18.10;7.93;;;12.00;99.90;;;;;;5042098;28;20440;-78
2023/05/31 05:38:53;;;;;;;16.53;8.40;;;12.00;99.90;;;;;;5042502;28;20426;-77
2023/05/31 05:41:19;;;;;;;16.60;8.33;;;12.10;99.90;;;;;;5042415;28;20413;-80
2023/05/31 05:43:45;;;;;;;15.60;7.90;;;12.30;99.90;;;;;;5048192;28;20416;-79
2023/05/31 05:46:10;;;;;;;15.77;8.70;;;12.10;99.90;;;;;;5047322;28;20415;-79
2023/05/31 05:48:36;;;;;;;15.35;8.40;;;12.60;99.90;;;;;;5041042;28;20562;-74
2023/05/31 05:51:03;;;;;;;16.95;8.93;;;12.50;99.90;;;;;;5042356;28;20518;-75
2023/05/31 05:53:29;;;;;;;15.05;7.82;;;12.40;99.90;;;;;;5045485;28;20429;-80
2023/05/31 05:55:54;;;;;;;18.60;8.57;;;12.80;99.90;;;;;;5045139;28;20506;-78
2023/05/31 05:58:21;;;;;;;15.75;8.27;;;12.40;99.90;;;;;;5046179;28;20791;-79
2023/05/31 06:00:48;;;;;;;17.08;7.97;;;12.30;99.90;;;;;;5046634;28;20418;-75
2023/05/31 06:03:14;;;;;;;20.73;8.63;;;12.70;99.90;;;;;;5046136;28;20769;-79
2023/05/31 06:05:44;;;;;;;19.43;8.13;;;12.50;99.90;;;;;;5046776;28;20425;-79
2023/05/31 06:08:12;;;;;;;15.98;7.45;;;12.60;99.90;;;;;;5045792;28;20512;-80
2023/05/31 06:10:40;;;;;;;14.40;7.05;;;12.80;99.90;;;;;;5033829;28;20423;-78
2023/05/31 06:13:06;;;;;;;15.82;7.90;;;12.90;99.90;;;;;;5043614;28;20475;-79
2023/05/31 06:15:32;;;;;;;17.02;8.57;;;13.10;99.90;;;;;;5042245;28;20429;-78
2023/05/31 06:18:00;;;;;;;13.13;7.22;;;12.90;99.90;;;;;;5044311;28;22265;-78
2023/05/31 06:20:26;;;;;;;14.15;8.48;;;13.30;99.90;;;;;;5041075;28;20441;-77
2023/05/31 06:22:52;;;;;;;17.33;8.07;;;13.40;99.90;;;;;;5048883;28;20539;-79
2023/05/31 06:25:19;;;;;;;15.10;8.18;;;13.30;99.90;;;;;;5045548;28;20435;-79
2023/05/31 06:27:47;;;;;;;13.70;8.50;;;13.20;99.90;;;;;;5048954;28;20436;-77
2023/05/31 06:30:13;;;;;;;12.90;6.95;;;13.20;99.90;;;;;;5044299;28;22026;-78
2023/05/31 06:32:39;;;;;;;14.57;7.78;;;13.30;99.90;;;;;;5045653;28;21048;-79
2023/05/31 06:35:06;;;;;;;16.52;8.57;;;13.40;99.90;;;;;;5041655;28;20421;-76
2023/05/31 06:37:31;;;;;;;12.63;7.47;;;13.50;99.90;;;;;;5035221;28;20437;-79
2023/05/31 06:39:57;;;;;;;12.35;7.30;;;13.60;99.90;;;;;;5045623;28;20417;-77
2023/05/31 06:42:23;;;;;;;12.43;6.87;;;13.60;99.90;;;;;;5048338;28;20414;-78
2023/05/31 06:44:49;;;;;;;13.43;6.72;;;13.80;99.90;;;;;;5045172;28;20436;-77
2023/05/31 06:47:14;;;;;;;10.50;7.17;;;14.00;99.90;;;;;;5050307;28;20433;-80
2023/05/31 06:49:41;;;;;;;11.93;6.50;;;14.20;99.90;;;;;;5049091;28;20466;-79
2023/05/31 06:52:06;;;;;;;11.30;7.10;;;14.90;99.90;;;;;;5048963;28;20429;-78
2023/05/31 06:54:36;;;;;;;13.37;5.90;;;16.50;99.90;;;;;;5035259;28;20413;-77
2023/05/31 06:57:05;;;;;;;12.75;6.32;;;16.10;99.90;;;;;;5051328;28;20417;-80
2023/05/31 06:59:31;;;;;;;14.80;7.10;;;16.90;99.90;;;;;;5051553;28;20429;-78
2023/05/31 07:01:57;;;;;;;13.13;6.72;;;17.40;99.90;;;;;;5055021;28;20421;-79
2023/05/31 07:04:23;;;;;;;12.60;5.93;;;17.60;99.90;;;;;;5052834;28;20431;-79
2023/05/31 07:06:49;;;;;;;10.65;5.55;;;18.20;99.90;;;;;;5047816;28;20431;-76
2023/05/31 07:09:15;;;;;;;11.95;6.57;;;17.90;99.90;;;;;;5049122;28;20401;-75
2023/05/31 07:11:41;;;;;;;12.45;5.20;;;17.60;99.90;;;;;;5045556;28;20433;-78
2023/05/31 07:14:08;;;;;;;13.75;5.50;;;18.40;99.90;;;;;;5046397;28;20780;-75
2023/05/31 07:16:33;;;;;;;8.82;4.57;;;17.90;99.90;;;;;;5035214;28;20427;-74
2023/05/31 07:18:59;;;;;;;11.57;5.20;;;18.20;99.90;;;;;;5043545;28;20520;-79
2023/05/31 07:21:25;;;;;;;11.40;5.13;;;19.30;99.90;;;;;;5046699;28;20436;-79
2023/05/31 07:23:51;;;;;;;9.25;5.07;;;18.40;99.90;;;;;;5045528;28;20448;-77
2023/05/31 07:26:17;;;;;;;9.57;5.38;;;18.60;99.90;;;;;;5036740;28;20425;-79
2023/05/31 07:28:44;;;;;;;8.33;4.00;;;18.20;99.90;;;;;;5047150;28;20888;-77
2023/05/31 07:31:10;;;;;;;10.45;4.60;;;18.90;99.90;;;;;;5045543;28;20429;-81
2023/05/31 07:33:35;;;;;;;9.63;4.35;;;18.80;99.90;;;;;;5045877;28;20478;-79
2023/05/31 07:36:01;;;;;;;9.83;4.47;;;19.00;99.90;;;;;;5036394;28;20421;-79
2023/05/31 07:38:27;;;;;;;6.60;3.37;;;19.60;99.90;;;;;;5044990;28;20460;-81
2023/05/31 07:40:53;;;;;;;6.10;3.70;;;19.60;99.90;;;;;;5041220;28;20461;-80
2023/05/31 07:43:21;;;;;;;9.13;4.63;;;19.10;99.90;;;;;;5046271;28;20565;-83
2023/05/31 07:45:51;;;;;;;8.00;4.90;;;17.20;99.90;;;;;;5045487;28;20433;-79
2023/05/31 07:48:17;;;;;;;8.00;4.32;;;17.50;99.90;;;;;;5047424;28;20418;-83
2023/05/31 07:50:44;;;;;;;7.40;3.37;;;17.20;99.90;;;;;;5045212;28;20486;-79
2023/05/31 07:53:09;;;;;;;10.65;3.65;;;17.40;99.90;;;;;;5036365;28;20462;-76
2023/05/31 07:55:36;;;;;;;4.40;3.17;;;17.30;99.90;;;;;;5044340;28;20448;-80
2023/05/31 07:58:01;;;;;;;7.97;4.13;;;17.40;99.90;;;;;;5044577;28;20487;-76
2023/05/31 08:00:27;;;;;;;6.10;3.10;;;17.40;99.90;;;;;;5044367;28;20501;-80
2023/05/31 08:02:53;;;;;;;5.40;2.60;;;17.90;99.90;;;;;;5046444;28;20409;-79
2023/05/31 08:05:19;;;;;;;8.15;3.35;;;17.60;99.90;;;;;;5034665;28;20921;-80
2023/05/31 08:07:45;;;;;;;7.03;3.30;;;17.90;99.90;;;;;;5046107;28;20495;-81
2023/05/31 08:10:11;;;;;;;6.63;3.10;;;17.80;99.90;;;;;;5045175;28;20907;-83
2023/05/31 08:12:37;;;;;;;6.50;3.85;;;17.60;99.90;;;;;;5045066;28;20436;-80
2023/05/31 08:15:03;;;;;;;5.40;3.17;;;17.40;99.90;;;;;;5044516;28;20418;-79
2023/05/31 08:17:29;;;;;;;6.88;2.78;;;17.70;99.90;;;;;;5041923;28;20484;-82
2023/05/31 08:19:55;;;;;;;8.80;3.13;;;17.80;99.90;;;;;;5044687;28;20417;-81
2023/05/31 08:22:20;;;;;;;5.30;2.90;;;17.80;99.90;;;;;;5045893;28;20425;-82
2023/05/31 08:24:46;;;;;;;7.73;3.23;;;17.60;99.90;;;;;;5040680;28;20999;-76
2023/05/31 08:27:12;;;;;;;5.38;3.20;;;17.50;99.90;;;;;;5044613;28;20436;-80
2023/05/31 08:29:38;;;;;;;8.10;3.60;;;18.00;99.90;;;;;;5044728;28;20429;-80
2023/05/31 08:32:04;;;;;;;7.05;3.17;;;17.90;99.90;;;;;;5044887;28;20491;-80
2023/05/31 08:34:30;;;;;;;17.50;4.50;;;18.20;99.90;;;;;;5042771;28;20507;-81
2023/05/31 08:36:55;;;;;;;11.30;3.80;;;18.20;99.90;;;;;;5045960;28;20433;-81
2023/05/31 08:39:21;;;;;;;9.70;3.97;;;17.90;99.90;;;;;;5045168;28;20764;-81
2023/05/31 08:42:03;;;;;;;6.40;3.75;;;18.10;99.90;;;;;;5045069;28;20447;-83
2023/05/31 08:44:29;;;;;;;6.43;3.10;;;18.20;99.90;;;;;;5042866;28;20436;-84
2023/05/31 08:47:28;;;;;;;8.07;3.50;;;18.10;99.90;;;;;;5045160;28;20460;-81
2023/05/31 08:49:55;;;;;;;6.10;3.10;;;18.00;99.90;;;;;;5041702;28;20425;-79
2023/05/31 08:52:22;;;;;;;8.10;3.23;;;18.70;99.90;;;;;;5043618;28;20570;-75
2023/05/31 08:54:49;;;;;;;8.75;3.53;;;18.50;99.90;;;;;;5044125;28;20452;-77
2023/05/31 08:57:16;;;;;;;7.82;3.17;;;18.40;99.90;;;;;;5044116;28;20547;-81
2023/05/31 08:59:43;;;;;;;11.57;4.78;;;17.80;99.90;;;;;;5043330;28;20432;-80
2023/05/31 09:02:12;;;;;;;8.55;3.90;;;18.10;99.90;;;;;;5046003;28;20416;-80
2023/05/31 09:04:40;;;;;;;6.47;3.17;;;18.10;99.90;;;;;;5039611;28;20429;-81
2023/05/31 09:07:06;;;;;;;8.97;3.60;;;18.20;99.90;;;;;;5044208;28;20436;-81
2023/05/31 09:09:31;;;;;;;7.93;3.73;;;17.90;99.90;;;;;;5044761;28;20394;-78
2023/05/31 09:11:57;;;;;;;10.90;3.83;;;17.70;99.90;;;;;;5044546;28;20520;-82
2023/05/31 09:14:26;;;;;;;10.13;4.00;;;17.90;99.90;;;;;;5045143;28;20913;-82
2023/05/31 09:16:52;;;;;;;16.33;3.88;;;18.00;99.90;;;;;;5042818;28;20410;-80
2023/05/31 09:19:17;;;;;;;16.83;4.50;;;18.40;99.90;;;;;;5047842;28;20547;-75
2023/05/31 09:21:44;;;;;;;14.30;3.95;;;18.40;99.90;;;;;;5049773;28;20884;-83
2023/05/31 09:24:13;;;;;;;13.68;4.65;;;18.00;99.90;;;;;;5043518;28;20470;-82
2023/05/31 09:26:47;;;;;;;8.03;4.33;;;18.40;99.90;;;;;;5048002;28;20428;-81
2023/05/31 09:29:13;;;;;;;15.85;4.88;;;18.60;99.90;;;;;;5037647;28;20891;-82
2023/05/31 09:31:39;;;;;;;8.90;3.40;;;18.20;99.90;;;;;;5049816;28;20437;-84
2023/05/31 09:34:04;;;;;;;11.93;4.25;;;17.90;99.90;;;;;;5050548;28;20439;-85
2023/05/31 09:36:31;;;;;;;15.37;3.83;;;18.20;99.90;;;;;;5054645;28;20455;-80
2023/05/31 09:39:04;;;;;;;16.33;5.90;;;17.90;99.90;;;;;;5052101;28;20502;-81
2023/05/31 09:41:31;;;;;;;14.10;5.18;;;18.10;99.90;;;;;;5026969;28;20498;-78
2023/05/31 09:43:57;;;;;;;14.27;5.10;;;17.60;99.90;;;;;;5055551;28;20477;-82
2023/05/31 09:46:24;;;;;;;15.88;5.53;;;18.00;99.90;;;;;;5046330;28;20465;-79
2023/05/31 09:49:02;;;;;;;11.50;4.83;;;17.70;99.90;;;;;;5043632;28;20531;-81
2023/05/31 09:51:28;;;;;;;14.13;5.03;;;17.40;99.90;;;;;;5046111;28;20520;-83
2023/05/31 09:53:55;;;;;;;11.45;5.57;;;17.80;99.90;;;;;;5047599;28;20439;-82
2023/05/31 09:56:22;;;;;;;15.57;4.90;;;17.50;99.90;;;;;;5045785;28;20429;-75
2023/05/31 09:58:52;;;;;;;10.70;4.72;;;17.50;99.90;;;;;;5034530;28;20437;-82
2023/05/31 10:01:18;;;;;;;11.97;4.27;;;17.90;99.90;;;;;;5009605;28;20441;-76
2023/05/31 10:03:45;;;;;;;9.38;4.07;;;17.60;99.90;;;;;;5044575;28;20479;-74
2023/05/31 10:06:11;;;;;;;13.57;5.40;;;17.30;99.90;;;;;;5043797;28;20417;-78
2023/05/31 10:08:37;;;;;;;11.25;4.88;;;17.50;99.90;;;;;;5041230;28;20436;-80
2023/05/31 10:11:03;;;;;;;11.87;4.50;;;17.30;99.90;;;;;;5048410;28;21981;-81
2023/05/31 10:13:31;;;;;;;12.10;5.43;;;17.50;99.90;;;;;;5039378;28;20514;-81
2023/05/31 10:16:00;;;;;;;9.70;4.77;;;17.40;99.90;;;;;;5045425;28;20449;-77
2023/05/31 10:18:30;;;;;;;13.00;5.72;;;17.40;99.90;;;;;;5054505;28;20421;-83
2023/05/31 10:21:07;;;;;;;8.13;4.18;;;17.70;99.90;;;;;;5046094;28;20429;-82
2023/05/31 10:23:43;;;;;;;13.90;5.43;;;17.00;99.90;;;;;;5024929;28;20436;-89
2023/05/31 10:26:15;;;;;;;10.27;4.63;;;17.50;99.90;;;;;;5050545;28;20417;-81
2023/05/31 10:29:20;;;;;;;12.50;5.90;;;17.40;99.90;;;;;;5044976;28;20440;-87
2023/05/31 10:31:50;;;;;;;9.82;4.53;;;17.30;99.90;;;;;;5039300;28;20497;-83
2023/05/31 10:34:21;;;;;;;9.83;4.80;;;17.40;99.90;;;;;;5049243;28;20452;-77
2023/05/31 10:36:48;;;;;;;10.85;5.07;;;17.60;99.90;;;;;;5045861;28;20433;-82
2023/05/31 10:39:55;;;;;;;9.85;4.68;;;17.70;99.90;;;;;;5048153;28;20431;-86
2023/05/31 10:42:40;;;;;;;10.75;5.03;;;17.80;99.90;;;;;;4967891;28;20445;-79
2023/05/31 10:45:35;;;;;;;10.23;5.03;;;18.10;99.90;;;;;;5020938;28;20445;-77
2023/05/31 10:48:29;;;;;;;10.18;5.07;;;18.20;99.90;;;;;;5033664;28;20423;-83
2023/05/31 10:50:56;;;;;;;11.02;4.93;;;18.40;99.90;;;;;;5035158;28;21170;-85
2023/05/31 10:53:22;;;;;;;12.65;5.38;;;18.10;99.90;;;;;;5047434;28;20513;-85
2023/05/31 10:55:49;;;;;;;11.20;5.35;;;17.60;99.90;;;;;;5047001;28;20413;-83
2023/05/31 10:58:37;;;;;;;10.52;5.00;;;17.80;99.90;;;;;;5046034;28;20513;-81
2023/05/31 11:01:08;;;;;;;10.50;5.95;;;18.20;99.90;;;;;;5047108;28;20813;-83
2023/05/31 11:03:48;;;;;;;11.73;5.55;;;18.30;99.90;;;;;;5046926;28;20500;-86
2023/05/31 11:06:17;;;;;;;13.75;6.05;;;18.30;99.90;;;;;;5042817;28;20433;-82
2023/05/31 11:09:00;;;;;;;10.02;4.57;;;18.60;99.90;;;;;;5047909;28;20428;-81
2023/05/31 11:11:28;;;;;;;10.25;5.85;;;18.10;99.90;;;;;;5047348;28;20512;-82
2023/05/31 11:13:58;;;;;;;13.45;5.90;;;18.30;99.90;;;;;;5046229;28;20440;-83
2023/05/31 11:16:26;;;;;;;12.20;6.20;;;18.60;99.90;;;;;;5039812;28;20720;-79
2023/05/31 11:19:07;;;;;;;10.75;5.32;;;18.20;99.90;;;;;;5032279;28;20419;-76
2023/05/31 11:22:15;;;;;;;8.77;5.07;;;18.40;99.90;;;;;;5042789;28;20444;-85
2023/05/31 11:24:50;;;;;;;12.57;5.40;;;18.30;99.90;;;;;;5040223;28;20463;-75
2023/05/31 11:27:20;;;;;;;10.93;5.65;;;18.30;99.90;;;;;;5011385;28;20766;-83
2023/05/31 11:29:51;;;;;;;13.73;5.27;;;18.50;99.90;;;;;;5045182;28;20788;-81
2023/05/31 11:32:19;;;;;;;10.98;5.93;;;18.50;99.90;;;;;;5046154;28;20751;-77
2023/05/31 11:35:15;;;;;;;12.03;5.93;;;18.50;99.90;;;;;;5047148;28;20457;-83
2023/05/31 11:37:42;;;;;;;11.52;6.07;;;18.40;99.90;;;;;;5035438;28;20429;-84
2023/05/31 11:40:12;;;;;;;13.80;5.82;;;18.70;99.90;;;;;;5046533;28;21068;-85
2023/05/31 11:42:40;;;;;;;9.48;5.47;;;18.20;99.90;;;;;;5045634;28;20500;-83
2023/05/31 11:45:10;;;;;;;13.82;5.13;;;18.30;99.90;;;;;;5044561;28;20425;-80
2023/05/31 11:47:45;;;;;;;9.70;5.20;;;18.40;99.90;;;;;;5047146;28;20819;-85
2023/05/31 11:50:16;;;;;;;9.60;5.78;;;18.30;99.90;;;;;;5044622;28;20417;-87
2023/05/31 11:52:42;;;;;;;11.30;5.70;;;18.20;99.90;;;;;;5044645;28;20515;-81
2023/05/31 11:55:09;;;;;;;13.70;5.38;;;18.30;99.90;;;;;;5044118;28;20425;-84
2023/05/31 11:57:41;;;;;;;10.33;6.23;;;18.60;99.90;;;;;;5047395;28;20431;-84
2023/05/31 12:00:11;;;;;;;14.95;6.93;;;18.60;99.90;;;;;;5046559;28;20725;-84
2023/05/31 12:02:44;;;;;;;11.18;5.38;;;18.40;99.90;;;;;;5047968;28;21098;-81
2023/05/31 12:05:14;;;;;;;9.17;4.77;;;18.20;99.90;;;;;;5050073;28;20425;-83
2023/05/31 12:07:40;;;;;;;12.23;5.20;;;18.60;99.90;;;;;;5045834;28;20421;-85
2023/05/31 12:10:07;;;;;;;12.13;6.05;;;18.80;99.90;;;;;;5047730;28;20428;-82
2023/05/31 12:12:35;;;;;;;7.93;4.60;;;18.60;99.90;;;;;;5047411;28;21001;-77
2023/05/31 12:15:04;;;;;;;8.82;4.82;;;18.70;99.90;;;;;;5046560;28;20425;-82
2023/05/31 12:17:31;;;;;;;8.25;4.85;;;18.70;99.90;;;;;;5045144;28;20429;-84
2023/05/31 12:19:57;;;;;;;13.00;6.18;;;18.30;99.90;;;;;;5030643;28;20419;-84
2023/05/31 12:22:23;;;;;;;8.15;4.20;;;18.60;99.90;;;;;;5046676;28;20444;-86
2023/05/31 12:24:50;;;;;;;12.88;6.03;;;18.40;99.90;;;;;;5045234;28;20425;-83
2023/05/31 12:27:17;;;;;;;10.65;5.78;;;18.50;99.90;;;;;;5046832;28;20417;-81
2023/05/31 12:29:43;;;;;;;12.90;5.57;;;18.30;99.90;;;;;;5047113;28;20539;-83
2023/05/31 12:32:09;;;;;;;10.15;4.80;;;18.10;99.90;;;;;;5049064;28;20429;-82
2023/05/31 12:34:36;;;;;;;10.05;4.63;;;18.30;99.90;;;;;;5050991;28;20420;-84
2023/05/31 12:37:07;;;;;;;12.60;5.17;;;18.40;99.90;;;;;;5044176;28;20821;-85
2023/05/31 12:39:36;;;;;;;10.25;4.65;;;18.60;99.90;;;;;;5051472;28;20472;-80
2023/05/31 12:42:03;;;;;;;7.97;4.50;;;18.60;99.90;;;;;;5052246;28;20989;-82
2023/05/31 12:44:30;;;;;;;8.98;4.35;;;18.10;99.90;;;;;;5044929;28;20737;-85
2023/05/31 12:47:04;;;;;;;7.20;3.72;;;18.30;99.90;;;;;;5044849;28;20495;-80